Time;durP1;ratioP1;P1;durP2;ratioP2;P2;SDS_P1;SDS_P2;PMS_P1;PMS_P2;Temp;Humidity;BMP_temperature;BMP_pressure;BME280_temperature;BME280_humidity;BME280_pressure;Samples;Min_cycle;Max_cycle;Signal;HPM_P1;HPM_P2
2021/08/29 00:01:29;;;;;;;;;;;;;;;15.33;76.92;97960.14;1733378;81;20271;-88
2021/08/29 00:04:00;;;;;;;;;;;;;;;15.31;76.97;97956.35;1709654;82;24717;-87
2021/08/29 00:06:26;;;;;;;;;;;;;;;15.30;76.99;97961.28;1706938;84;22071;-88
2021/08/29 00:08:52;;;;;;;;;;;;;;;15.29;76.97;97955.66;1709640;84;26058;-88
2021/08/29 00:11:18;;;;;;;;;;;;;;;15.27;77.01;97958.95;1710521;82;20383;-86
2021/08/29 00:13:43;;;;;;;;;;;;;;;15.29;77.04;97965.37;1709785;82;21785;-86
2021/08/29 00:16:10;;;;;;;;;;;;;;;15.26;77.05;97964.36;1708600;82;24513;-86
2021/08/29 00:18:36;;;;;;;;;;;;;;;15.24;77.06;97964.50;1709580;84;22040;-85
2021/08/29 00:21:02;;;;;;;;;;;;;;;15.24;77.09;97961.03;1707893;84;26655;-85
2021/08/29 00:23:28;;;;;;;;;;;;;;;15.22;77.12;97969.08;1735529;81;20332;-85
2021/08/29 00:25:54;;;;;;;;;;;;;;;15.17;77.16;97964.74;1707827;82;20283;-85
2021/08/29 00:28:20;;;;;;;;;;;;;;;15.14;77.18;97963.73;1708873;84;25019;-86
2021/08/29 00:30:46;;;;;;;;;;;;;;;15.12;77.21;97956.94;1737893;81;20295;-85
2021/08/29 00:33:12;;;;;;;;;;;;;;;15.10;77.22;97960.22;1708447;84;20966;-85
2021/08/29 00:35:38;;;;;;;;;;;;;;;15.05;77.27;97960.67;1709765;84;24604;-85
2021/08/29 00:38:04;;;;;;;;;;;;;;;15.00;77.28;97960.28;1708472;84;20244;-84
2021/08/29 00:40:30;;;;;;;;;;;;;;;14.99;77.33;97964.72;1706489;84;24845;-84
2021/08/29 00:43:02;;;;;;;;;;;;;;;14.99;77.38;97955.98;1708465;84;22658;-85
2021/08/29 00:45:28;;;;;;;;;;;;;;;14.99;77.42;97956.81;1709174;84;26686;-85
2021/08/29 00:47:55;;;;;;;;;;;;;;;14.99;77.46;97954.66;1708786;84;24485;-85
2021/08/29 00:50:21;;;;;;;;;;;;;;;14.91;77.50;97941.38;1696754;84;20220;-85
2021/08/29 00:52:47;;;;;;;;;;;;;;;14.99;77.56;97953.34;1708580;82;24738;-85
2021/08/29 00:55:13;;;;;;;;;;;;;;;14.98;77.60;97951.68;1708990;84;21918;-85
2021/08/29 00:57:42;;;;;;;;;;;;;;;14.95;77.65;97947.52;1709480;84;26094;-84
2021/08/29 01:00:10;;;;;;;;;;;;;;;14.92;77.68;97945.19;1710503;83;24697;-85
2021/08/29 01:02:37;;;;;;;;;;;;;;;14.92;77.75;97948.31;1741590;80;20188;-84
2021/08/29 01:05:05;;;;;;;;;;;;;;;14.87;77.79;97940.02;1731824;82;24787;-84
2021/08/29 01:07:45;;;;;;;;;;;;;;;14.85;77.84;97945.91;1700145;82;21965;-84
2021/08/29 01:10:13;;;;;;;;;;;;;;;14.85;77.90;97950.69;1729641;81;26208;-85
2021/08/29 01:12:47;;;;;;;;;;;;;;;14.89;77.96;97949.94;1733230;81;24486;-85
2021/08/29 01:15:13;;;;;;;;;;;;;;;14.90;78.02;97952.40;1729406;82;20294;-85
2021/08/29 01:17:46;;;;;;;;;;;;;;;14.85;78.07;97955.12;1728870;81;24739;-85
2021/08/29 01:20:23;;;;;;;;;;;;;;;14.77;78.14;97955.04;1729337;81;22028;-85
2021/08/29 01:22:51;;;;;;;;;;;;;;;14.74;78.20;97956.63;1700190;82;25800;-85
2021/08/29 01:25:18;;;;;;;;;;;;;;;14.70;78.28;97956.09;1730714;81;24616;-84
2021/08/29 01:27:52;;;;;;;;;;;;;;;14.68;78.34;97962.47;1726588;82;20554;-85
2021/08/29 01:30:37;;;;;;;;;;;;;;;14.81;78.42;97957.72;1724549;82;20809;-85
2021/08/29 01:33:03;;;;;;;;;;;;;;;14.92;78.52;97947.83;1701542;82;21885;-86
2021/08/29 01:35:29;;;;;;;;;;;;;;;15.03;78.58;97941.05;1729820;82;25970;-85
2021/08/29 01:37:56;;;;;;;;;;;;;;;15.07;78.63;97937.13;1727462;82;24374;-86
2021/08/29 01:40:22;;;;;;;;;;;;;;;15.10;78.67;97941.29;1706328;82;21260;-85
2021/08/29 01:42:48;;;;;;;;;;;;;;;15.14;78.70;97935.22;1726449;81;24728;-85
2021/08/29 01:45:24;;;;;;;;;;;;;;;15.17;78.74;97929.64;1729075;82;22035;-85
2021/08/29 01:47:51;;;;;;;;;;;;;;;15.19;78.75;97925.90;1734645;81;25956;-85
2021/08/29 01:50:17;;;;;;;;;;;;;;;15.19;78.75;97922.42;1733933;81;25128;-85
2021/08/29 01:52:43;;;;;;;;;;;;;;;15.19;78.74;97920.63;1733862;81;20244;-86
2021/08/29 01:55:10;;;;;;;;;;;;;;;15.19;78.74;97927.22;1732604;81;24229;-86
2021/08/29 01:57:36;;;;;;;;;;;;;;;15.19;78.73;97925.06;1733487;81;21930;-86
2021/08/29 02:00:02;;;;;;;;;;;;;;;15.17;78.71;97919.93;1699434;82;26006;-86
2021/08/29 02:02:29;;;;;;;;;;;;;;;15.13;78.69;97927.80;1726573;82;24471;-86
2021/08/29 02:04:55;;;;;;;;;;;;;;;15.11;78.72;97925.80;1736874;81;20300;-86
2021/08/29 02:07:29;;;;;;;;;;;;;;;15.11;78.72;97918.41;1731104;82;20687;-86
2021/08/29 02:09:57;;;;;;;;;;;;;;;15.12;78.72;97925.30;1729115;81;22044;-85
2021/08/29 02:12:23;;;;;;;;;;;;;;;15.08;78.72;97914.24;1729640;81;26769;-86
2021/08/29 02:14:51;;;;;;;;;;;;;;;15.07;78.73;97916.05;1727803;82;24628;-85
2021/08/29 02:17:19;;;;;;;;;;;;;;;15.04;78.76;97912.89;1728928;82;20300;-86
2021/08/29 02:19:46;;;;;;;;;;;;;;;15.04;78.79;97907.13;1736973;81;25444;-86
2021/08/29 02:22:13;;;;;;;;;;;;;;;15.05;78.82;97906.13;1730020;82;22154;-85
2021/08/29 02:24:39;;;;;;;;;;;;;;;15.05;78.84;97905.33;1728215;81;26048;-86
2021/08/29 02:27:06;;;;;;;;;;;;;;;15.06;78.86;97903.00;1703866;82;24199;-86
2021/08/29 02:29:32;;;;;;;;;;;;;;;15.05;78.89;97901.38;1731797;82;20289;-86
2021/08/29 02:31:59;;;;;;;;;;;;;;;14.99;78.94;97904.59;1727456;81;24727;-86
2021/08/29 02:34:25;;;;;;;;;;;;;;;14.90;78.98;97901.51;1726255;81;22158;-85
2021/08/29 02:36:52;;;;;;;;;;;;;;;14.87;79.02;97906.59;1707271;81;20975;-86
2021/08/29 02:39:18;;;;;;;;;;;;;;;14.89;79.08;97909.09;1725763;81;24487;-86
2021/08/29 02:41:45;;;;;;;;;;;;;;;14.92;79.16;97908.78;1729172;81;20331;-85
2021/08/29 02:44:11;;;;;;;;;;;;;;;14.93;79.23;97915.72;1724041;81;24817;-86
2021/08/29 02:46:38;;;;;;;;;;;;;;;14.92;79.28;97917.52;1728448;82;21997;-85
2021/08/29 02:49:05;;;;;;;;;;;;;;;14.95;79.34;97916.38;1731621;81;25984;-86
2021/08/29 02:51:31;;;;;;;;;;;;;;;15.00;79.40;97920.75;1727211;82;24613;-86
2021/08/29 02:53:57;;;;;;;;;;;;;;;15.05;79.45;97918.50;1725298;81;20489;-86
2021/08/29 02:56:24;;;;;;;;;;;;;;;15.04;79.47;97912.40;1735108;81;24798;-86
2021/08/29 02:58:50;;;;;;;;;;;;;;;15.05;79.52;97907.45;1731642;81;21969;-86
2021/08/29 03:01:17;;;;;;;;;;;;;;;15.04;79.55;97912.40;1733278;81;21051;-86
2021/08/29 03:03:44;;;;;;;;;;;;;;;14.99;79.59;97911.19;1733082;81;24450;-87
2021/08/29 03:06:11;;;;;;;;;;;;;;;14.96;79.63;97908.34;1727870;81;20182;-87
2021/08/29 03:08:38;;;;;;;;;;;;;;;14.94;79.68;97908.16;1732580;81;24660;-87
2021/08/29 03:11:04;;;;;;;;;;;;;;;14.88;79.70;97917.48;1722052;82;22612;-87
2021/08/29 03:13:30;;;;;;;;;;;;;;;14.83;79.73;97918.90;1730895;81;21033;-88
2021/08/29 03:15:56;;;;;;;;;;;;;;;14.83;79.78;97915.78;1731840;82;24479;-87
2021/08/29 03:18:22;;;;;;;;;;;;;;;14.89;79.88;97915.68;1729461;81;20256;-87
2021/08/29 03:20:49;;;;;;;;;;;;;;;14.92;79.95;97912.73;1724301;81;24828;-87
2021/08/29 03:23:15;;;;;;;;;;;;;;;14.89;80.00;97919.12;1730758;81;22027;-86
2021/08/29 03:25:42;;;;;;;;;;;;;;;14.75;80.02;97916.98;1728172;81;25979;-86
2021/08/29 03:28:14;;;;;;;;;;;;;;;14.61;80.08;97919.63;1728413;82;24513;-86
2021/08/29 03:30:41;;;;;;;;;;;;;;;14.56;80.12;97913.92;1731536;81;20541;-88
2021/08/29 03:33:07;;;;;;;;;;;;;;;14.67;80.20;97907.67;1728015;82;25603;-87
2021/08/29 03:35:34;;;;;;;;;;;;;;;14.77;80.29;97913.72;1729635;82;22051;-87
2021/08/29 03:38:00;;;;;;;;;;;;;;;14.75;80.37;97909.56;1732270;81;26748;-87
2021/08/29 03:40:27;;;;;;;;;;;;;;;14.82;80.45;97911.48;1729869;81;24481;-87
2021/08/29 03:42:53;;;;;;;;;;;;;;;14.90;80.51;97908.09;1728434;82;20195;-87
2021/08/29 03:45:26;;;;;;;;;;;;;;;15.00;80.58;97908.38;1731397;82;24940;-87
2021/08/29 03:47:55;;;;;;;;;;;;;;;15.11;80.64;97911.30;1726453;82;22025;-87
2021/08/29 03:50:24;;;;;;;;;;;;;;;15.17;80.68;97909.88;1730204;81;26036;-88
2021/08/29 03:52:53;;;;;;;;;;;;;;;15.18;80.72;97911.53;1729663;82;24421;-88
2021/08/29 03:55:19;;;;;;;;;;;;;;;15.16;80.70;97906.44;1729580;82;20245;-88
2021/08/29 03:57:45;;;;;;;;;;;;;;;15.15;80.74;97906.58;1731316;82;24587;-88
2021/08/29 04:00:12;;;;;;;;;;;;;;;15.14;80.74;97909.70;1732360;82;21926;-88
2021/08/29 04:02:39;;;;;;;;;;;;;;;15.13;80.75;97908.03;1702840;82;26052;-89
2021/08/29 04:05:06;;;;;;;;;;;;;;;15.11;80.75;97909.18;1721794;81;24541;-88
2021/08/29 04:07:34;;;;;;;;;;;;;;;15.08;80.78;97908.48;1729648;81;20309;-88
2021/08/29 04:10:02;;;;;;;;;;;;;;;15.10;80.80;97910.15;1731387;82;25391;-87
2021/08/29 04:12:29;;;;;;;;;;;;;;;15.09;80.80;97910.63;1728082;82;21956;-87
2021/08/29 04:14:56;;;;;;;;;;;;;;;15.08;80.83;97908.48;1702674;82;27183;-87
2021/08/29 04:17:23;;;;;;;;;;;;;;;15.06;80.86;97906.95;1731046;81;24446;-87
2021/08/29 04:19:50;;;;;;;;;;;;;;;15.07;80.86;97907.30;1707431;82;20459;-87
2021/08/29 04:22:25;;;;;;;;;;;;;;;15.00;80.90;97908.38;1730999;82;24382;-86
2021/08/29 04:24:55;;;;;;;;;;;;;;;14.97;80.92;97904.73;1699216;82;36206;-86
2021/08/29 04:27:21;;;;;;;;;;;;;;;14.99;80.97;97911.19;1728791;81;26214;-86
2021/08/29 04:29:48;;;;;;;;;;;;;;;14.99;81.00;97913.82;1733248;81;24516;-86
2021/08/29 04:32:15;;;;;;;;;;;;;;;14.97;81.04;97911.81;1727061;81;20237;-86
2021/08/29 04:34:41;;;;;;;;;;;;;;;14.95;81.05;97910.63;1730122;82;24889;-86
2021/08/29 04:37:07;;;;;;;;;;;;;;;14.97;81.11;97918.39;1723824;82;22758;-88
2021/08/29 04:39:37;;;;;;;;;;;;;;;14.97;81.14;97916.59;1736406;81;26138;-87
2021/08/29 04:42:06;;;;;;;;;;;;;;;14.98;81.13;97913.47;1728125;81;24479;-87
2021/08/29 04:44:33;;;;;;;;;;;;;;;14.98;81.19;97918.26;1729308;82;20316;-88
2021/08/29 04:47:01;;;;;;;;;;;;;;;14.92;81.23;97916.69;1729377;81;24420;-87
2021/08/29 04:49:28;;;;;;;;;;;;;;;14.93;81.25;97920.99;1731848;81;21957;-87
2021/08/29 04:51:54;;;;;;;;;;;;;;;14.95;81.30;97924.29;1731590;82;26047;-87
2021/08/29 04:54:19;;;;;;;;;;;;;;;14.87;81.34;97930.31;1732272;82;20310;-87
2021/08/29 04:56:45;;;;;;;;;;;;;;;14.80;81.38;97927.91;1726820;82;20239;-87
2021/08/29 04:59:12;;;;;;;;;;;;;;;14.78;81.43;97936.47;1730004;81;24778;-88
2021/08/29 05:01:38;;;;;;;;;;;;;;;14.74;81.52;97938.19;1735068;81;22033;-88
2021/08/29 05:04:04;;;;;;;;;;;;;;;14.65;81.54;97930.20;1722110;81;27317;-88
2021/08/29 05:06:30;;;;;;;;;;;;;;;14.62;81.61;97938.38;1708746;84;24604;-88
2021/08/29 05:08:56;;;;;;;;;;;;;;;14.61;81.66;97936.73;1709105;82;20573;-88
2021/08/29 05:11:22;;;;;;;;;;;;;;;14.61;81.74;97939.38;1698651;82;21791;-87
2021/08/29 05:13:48;;;;;;;;;;;;;;;14.59;81.80;97941.30;1708330;82;21969;-87
2021/08/29 05:16:14;;;;;;;;;;;;;;;14.59;81.89;97947.06;1699238;82;26032;-87
2021/08/29 05:18:41;;;;;;;;;;;;;;;14.56;81.95;97942.09;1733691;81;24463;-87
2021/08/29 05:21:07;;;;;;;;;;;;;;;14.50;82.00;97946.61;1731345;82;20298;-87
2021/08/29 05:23:33;;;;;;;;;;;;;;;14.45;82.06;97947.05;1691167;83;24819;-87
2021/08/29 05:25:59;;;;;;;;;;;;;;;14.45;82.10;97943.09;1704446;82;21935;-86
2021/08/29 05:28:25;;;;;;;;;;;;;;;14.48;82.19;97949.38;1707836;83;26028;-86
2021/08/29 05:30:54;;;;;;;;;;;;;;;14.46;82.25;97957.06;1708756;82;24508;-86
2021/08/29 05:33:20;;;;;;;;;;;;;;;14.41;82.32;97950.91;1709960;82;20192;-86
2021/08/29 05:35:46;;;;;;;;;;;;;;;14.44;82.34;97946.70;1708889;83;20291;-87
2021/08/29 05:38:12;;;;;;;;;;;;;;;14.57;82.42;97944.56;1708901;82;21957;-86
2021/08/29 05:40:38;;;;;;;;;;;;;;;14.71;82.51;97952.49;1708469;82;25970;-87
2021/08/29 05:43:07;;;;;;;;;;;;;;;14.82;82.57;97949.67;1709473;82;24400;-87
2021/08/29 05:45:33;;;;;;;;;;;;;;;14.83;82.61;97950.52;1711175;82;20847;-87
2021/08/29 05:47:59;;;;;;;;;;;;;;;14.86;82.66;97949.72;1706740;83;24709;-87
2021/08/29 05:50:27;;;;;;;;;;;;;;;14.86;82.66;97951.52;1706672;83;22035;-86
2021/08/29 05:52:53;;;;;;;;;;;;;;;14.89;82.68;97953.37;1710914;83;26800;-87
2021/08/29 05:55:19;;;;;;;;;;;;;;;14.95;82.69;97954.59;1702688;84;20318;-87
2021/08/29 05:57:46;;;;;;;;;;;;;;;14.95;82.68;97955.42;1702193;84;20360;-86
2021/08/29 06:00:12;;;;;;;;;;;;;;;15.04;82.70;97960.33;1701415;84;24785;-86
2021/08/29 06:02:40;;;;;;;;;;;;;;;15.10;82.69;97954.95;1703110;84;21892;-88
2021/08/29 06:05:13;;;;;;;;;;;;;;;15.12;82.68;97955.12;1720015;82;25957;-88
2021/08/29 06:07:40;;;;;;;;;;;;;;;15.08;82.65;97947.19;1726498;81;24531;-88
2021/08/29 06:10:06;;;;;;;;;;;;;;;15.02;82.59;97945.13;1729669;82;20331;-87
2021/08/29 06:12:34;;;;;;;;;;;;;;;14.97;82.57;97942.11;1730348;81;25436;-87
2021/08/29 06:15:00;;;;;;;;;;;;;;;14.88;82.49;97933.30;1732014;81;22089;-88
2021/08/29 06:17:26;;;;;;;;;;;;;;;14.85;82.45;97934.05;1731799;82;25915;-87
2021/08/29 06:19:52;;;;;;;;;;;;;;;14.78;82.45;97931.68;1731667;82;24650;-87
2021/08/29 06:22:18;;;;;;;;;;;;;;;14.74;82.44;97934.23;1725328;81;20254;-87
2021/08/29 06:24:44;;;;;;;;;;;;;;;14.70;82.42;97925.81;1733500;82;20270;-87
2021/08/29 06:27:10;;;;;;;;;;;;;;;14.67;82.42;97924.80;1732519;81;20923;-87
2021/08/29 06:29:36;;;;;;;;;;;;;;;14.65;82.44;97920.98;1733000;81;20912;-87
2021/08/29 06:32:02;;;;;;;;;;;;;;;14.70;82.43;97923.66;1728227;81;20301;-89
2021/08/29 06:34:29;;;;;;;;;;;;;;;14.73;82.45;97924.19;1729648;82;20264;-87
2021/08/29 06:36:55;;;;;;;;;;;;;;;14.77;82.50;97918.99;1729707;81;24802;-87
2021/08/29 06:39:21;;;;;;;;;;;;;;;14.78;82.53;97915.88;1727964;82;21997;-86
2021/08/29 06:41:47;;;;;;;;;;;;;;;14.83;82.56;97919.73;1731984;81;25993;-87
2021/08/29 06:44:13;;;;;;;;;;;;;;;14.87;82.59;97910.55;1747419;81;24495;-87
2021/08/29 06:46:39;;;;;;;;;;;;;;;14.94;82.67;97908.16;1728374;82;20240;-87
2021/08/29 06:49:06;;;;;;;;;;;;;;;14.99;82.69;97907.23;1734636;81;24795;-87
2021/08/29 06:51:41;;;;;;;;;;;;;;;15.02;82.71;97901.66;1724604;82;22014;-87
2021/08/29 06:54:06;;;;;;;;;;;;;;;15.08;82.77;97904.53;1727474;82;26026;-87
2021/08/29 06:56:39;;;;;;;;;;;;;;;15.20;82.83;97906.47;1730946;82;20309;-89
2021/08/29 06:59:05;;;;;;;;;;;;;;;15.29;82.90;97906.05;1730353;81;20233;-89
2021/08/29 07:01:31;;;;;;;;;;;;;;;15.37;82.97;97904.34;1726443;81;20765;-88
2021/08/29 07:03:59;;;;;;;;;;;;;;;15.44;82.98;97895.32;1728412;81;22076;-88
2021/08/29 07:06:25;;;;;;;;;;;;;;;15.51;83.02;97891.11;1729131;81;26049;-88
2021/08/29 07:08:51;;;;;;;;;;;;;;;15.61;83.02;97885.78;1731362;81;24460;-87
2021/08/29 07:11:17;;;;;;;;;;;;;;;15.62;83.05;97886.12;1733295;81;20348;-89
2021/08/29 07:13:43;;;;;;;;;;;;;;;15.63;83.08;97886.47;1728132;81;24762;-89
2021/08/29 07:16:09;;;;;;;;;;;;;;;15.68;83.07;97885.52;1737770;81;22032;-90
2021/08/29 07:18:35;;;;;;;;;;;;;;;15.71;83.04;97879.95;1733594;81;25945;-87
2021/08/29 07:21:02;;;;;;;;;;;;;;;15.76;83.04;97875.88;1734390;81;25404;-87
2021/08/29 07:23:29;;;;;;;;;;;;;;;15.77;83.00;97874.04;1736643;81;20486;-87
2021/08/29 07:25:56;;;;;;;;;;;;;;;15.74;82.99;97880.47;1730984;82;25441;-88
2021/08/29 07:28:22;;;;;;;;;;;;;;;15.74;82.96;97873.04;1727451;81;21996;-87
2021/08/29 07:30:51;;;;;;;;;;;;;;;15.77;82.94;97872.72;1733645;82;26765;-87
2021/08/29 07:33:23;;;;;;;;;;;;;;;15.81;82.92;97868.33;1730462;82;24464;-87
2021/08/29 07:35:49;;;;;;;;;;;;;;;15.85;82.89;97866.20;1730752;82;20243;-86
2021/08/29 07:38:15;;;;;;;;;;;;;;;16.00;82.88;97869.93;1731813;81;24779;-87
2021/08/29 07:40:41;;;;;;;;;;;;;;;16.06;82.88;97872.44;1702981;82;20350;-86
2021/08/29 07:43:07;;;;;;;;;;;;;;;16.04;82.82;97872.59;1732723;82;25988;-87
2021/08/29 07:45:33;;;;;;;;;;;;;;;16.01;82.75;97873.41;1730809;82;24592;-87
2021/08/29 07:47:59;;;;;;;;;;;;;;;15.95;82.69;97877.48;1733477;81;20369;-86
2021/08/29 07:50:25;;;;;;;;;;;;;;;16.02;82.62;97878.53;1730390;82;24792;-86
2021/08/29 07:52:51;;;;;;;;;;;;;;;16.12;82.62;97876.61;1730217;81;21957;-86
2021/08/29 07:55:20;;;;;;;;;;;;;;;16.14;82.55;97878.62;1721701;82;21047;-86
2021/08/29 07:57:51;;;;;;;;;;;;;;;16.19;82.51;97876.34;1732691;81;24486;-89
2021/08/29 08:00:18;;;;;;;;;;;;;;;16.29;82.46;97876.22;1725860;81;20565;-87
2021/08/29 08:02:44;;;;;;;;;;;;;;;16.36;82.42;97877.75;1731327;82;24750;-86
2021/08/29 08:05:10;;;;;;;;;;;;;;;16.46;82.40;97877.97;1729105;82;20243;-87
2021/08/29 08:07:36;;;;;;;;;;;;;;;16.61;82.41;97880.38;1731059;81;26162;-87
2021/08/29 08:10:03;;;;;;;;;;;;;;;16.77;82.41;97880.94;1727672;81;24496;-87
2021/08/29 08:12:29;;;;;;;;;;;;;;;16.86;82.36;97879.14;1732338;81;20167;-87
2021/08/29 08:14:55;;;;;;;;;;;;;;;16.76;82.23;97886.38;1734510;81;20757;-87
2021/08/29 08:17:21;;;;;;;;;;;;;;;16.63;82.01;97884.20;1732237;81;21961;-89
2021/08/29 08:19:47;;;;;;;;;;;;;;;16.60;81.83;97891.93;1735088;81;26043;-89
2021/08/29 08:22:13;;;;;;;;;;;;;;;16.59;81.67;97886.80;1731397;81;24496;-89
2021/08/29 08:24:39;;;;;;;;;;;;;;;16.62;81.53;97890.46;1731235;81;20188;-89
2021/08/29 08:27:05;;;;;;;;;;;;;;;16.76;81.49;97895.13;1730691;81;25515;-89
2021/08/29 08:29:31;;;;;;;;;;;;;;;16.84;81.42;97900.95;1733010;82;21441;-86
2021/08/29 08:31:59;;;;;;;;;;;;;;;17.02;81.38;97901.70;1730188;82;26227;-86
2021/08/29 08:34:25;;;;;;;;;;;;;;;17.20;81.34;97900.23;1732501;81;24482;-86
2021/08/29 08:36:52;;;;;;;;;;;;;;;17.21;81.27;97905.86;1729594;81;20279;-86
2021/08/29 08:39:18;;;;;;;;;;;;;;;17.15;81.21;97905.52;1761139;80;24775;-86
2021/08/29 08:41:44;;;;;;;;;;;;;;;17.11;81.10;97913.45;1716757;83;22931;-85
2021/08/29 08:44:11;;;;;;;;;;;;;;;17.17;81.00;97909.83;1729250;81;26042;-86
2021/08/29 08:46:37;;;;;;;;;;;;;;;17.21;80.91;97909.34;1732206;82;24541;-86
2021/08/29 08:49:03;;;;;;;;;;;;;;;17.34;80.85;97911.03;1730898;81;20242;-86
2021/08/29 08:51:30;;;;;;;;;;;;;;;17.43;80.77;97914.02;1729920;82;20235;-86
2021/08/29 08:53:59;;;;;;;;;;;;;;;17.55;80.73;97910.08;1727353;82;21936;-86
2021/08/29 08:56:25;;;;;;;;;;;;;;;17.65;80.68;97905.14;1728683;81;27042;-88
2021/08/29 08:58:55;;;;;;;;;;;;;;;17.72;80.61;97906.98;1727321;82;25178;-90
2021/08/29 09:01:21;;;;;;;;;;;;;;;17.74;80.47;97906.30;1727268;82;20208;-90
2021/08/29 09:03:55;;;;;;;;;;;;;;;17.72;80.33;97909.62;1731759;81;24777;-87
2021/08/29 09:06:28;;;;;;;;;;;;;;;17.64;80.19;97904.81;1727691;81;21922;-87
2021/08/29 09:09:01;;;;;;;;;;;;;;;17.64;80.08;97907.45;1717180;82;26151;-85
2021/08/29 09:11:27;;;;;;;;;;;;;;;17.61;80.00;97907.30;1742629;80;25118;-85
2021/08/29 09:13:54;;;;;;;;;;;;;;;17.53;79.89;97907.25;1744189;81;20244;-85
2021/08/29 09:16:21;;;;;;;;;;;;;;;17.51;79.82;97909.25;1746313;80;24731;-85
2021/08/29 09:18:55;;;;;;;;;;;;;;;17.46;79.73;97900.94;1754712;81;22632;-86
2021/08/29 09:21:27;;;;;;;;;;;;;;;17.44;79.64;97889.72;1734183;82;26778;-85
2021/08/29 09:23:54;;;;;;;;;;;;;;;17.56;79.58;97891.86;1702971;81;24396;-85
2021/08/29 09:26:22;;;;;;;;;;;;;;;17.63;79.57;97877.52;1729896;81;20295;-85
2021/08/29 09:28:49;;;;;;;;;;;;;;;17.71;79.55;97882.83;1722599;81;25752;-85
2021/08/29 09:31:16;;;;;;;;;;;;;;;17.77;79.55;97883.48;1728480;81;22018;-85
2021/08/29 09:33:42;;;;;;;;;;;;;;;17.90;79.51;97875.03;1742317;80;25939;-85
2021/08/29 09:36:09;;;;;;;;;;;;;;;18.02;79.52;97878.99;1719966;83;24509;-85
2021/08/29 09:38:42;;;;;;;;;;;;;;;18.05;79.48;97876.52;1716462;83;20234;-85
2021/08/29 09:41:22;;;;;;;;;;;;;;;18.03;79.42;97873.20;1742093;81;25577;-85
2021/08/29 09:43:49;;;;;;;;;;;;;;;18.07;79.34;97870.55;1737753;80;21988;-86
2021/08/29 09:46:15;;;;;;;;;;;;;;;18.15;79.29;97863.92;1743377;80;25968;-86
2021/08/29 09:48:43;;;;;;;;;;;;;;;18.11;79.22;97866.59;1742812;80;24446;-85
2021/08/29 09:51:10;;;;;;;;;;;;;;;18.11;79.15;97860.77;1737223;80;20269;-85
2021/08/29 09:53:44;;;;;;;;;;;;;;;18.15;79.11;97863.92;1751766;80;25291;-85
2021/08/29 09:56:21;;;;;;;;;;;;;;;18.16;79.03;97859.79;1719747;82;21979;-85
2021/08/29 09:58:48;;;;;;;;;;;;;;;18.11;78.93;97858.64;1743047;80;25984;-85
2021/08/29 10:01:15;;;;;;;;;;;;;;;18.11;78.78;97858.64;1752181;80;24504;-85
2021/08/29 10:03:48;;;;;;;;;;;;;;;18.11;78.68;97858.11;1742603;80;20621;-86
2021/08/29 10:06:25;;;;;;;;;;;;;;;18.13;78.59;97852.66;1741805;79;24898;-86
2021/08/29 10:08:52;;;;;;;;;;;;;;;18.17;78.53;97848.17;1746763;80;21952;-86
2021/08/29 10:11:19;;;;;;;;;;;;;;;18.18;78.46;97846.36;1711630;82;26013;-86
2021/08/29 10:13:49;;;;;;;;;;;;;;;18.21;78.44;97840.73;1712186;82;25359;-86
2021/08/29 10:16:16;;;;;;;;;;;;;;;18.25;78.43;97835.42;1708315;82;20253;-86
2021/08/29 10:18:43;;;;;;;;;;;;;;;18.40;78.45;97835.03;1729442;81;24624;-88
2021/08/29 10:21:13;;;;;;;;;;;;;;;18.56;78.50;97835.01;1708132;84;22170;-88
2021/08/29 10:23:41;;;;;;;;;;;;;;;18.75;78.51;97833.78;1719925;82;25575;-88
2021/08/29 10:26:12;;;;;;;;;;;;;;;18.87;78.46;97832.41;1712880;81;24488;-88
2021/08/29 10:28:47;;;;;;;;;;;;;;;18.85;78.31;97832.23;1715951;81;20375;-88
2021/08/29 10:31:14;;;;;;;;;;;;;;;18.74;78.14;97830.30;1719636;82;24895;-86
2021/08/29 10:33:47;;;;;;;;;;;;;;;18.59;77.91;97828.06;1717937;81;22857;-86
2021/08/29 10:36:08;;;;;;;;;;;;;;;18.50;77.73;97833.01;1716564;81;25984;-86
2021/08/29 10:38:36;;;;;;;;;;;;;;;18.42;77.54;97825.60;1714559;83;20307;-88
2021/08/29 10:41:02;;;;;;;;;;;;;;;18.42;77.42;97830.41;1716392;83;20282;-89
2021/08/29 10:43:28;;;;;;;;;;;;;;;18.36;77.32;97817.34;1718599;81;25331;-88
2021/08/29 10:46:06;;;;;;;;;;;;;;;18.45;77.23;97828.72;1718287;81;22681;-86
2021/08/29 10:48:34;;;;;;;;;;;;;;;18.57;77.22;97822.59;1697177;83;25904;-86
2021/08/29 10:51:01;;;;;;;;;;;;;;;18.66;77.11;97820.22;1696682;82;25431;-85
2021/08/29 10:53:33;;;;;;;;;;;;;;;18.57;77.03;97825.23;1718127;81;20285;-86
2021/08/29 10:56:13;;;;;;;;;;;;;;;18.34;76.90;97815.35;1718795;81;25462;-86
2021/08/29 10:58:40;;;;;;;;;;;;;;;18.21;76.77;97816.90;1722903;80;22093;-86
2021/08/29 11:01:08;;;;;;;;;;;;;;;18.21;76.79;97814.25;1719194;81;26024;-86
2021/08/29 11:03:34;;;;;;;;;;;;;;;18.17;76.78;97808.94;1704846;82;24348;-86
2021/08/29 11:06:00;;;;;;;;;;;;;;;18.14;76.76;97806.16;1755429;80;20212;-86
2021/08/29 11:08:27;;;;;;;;;;;;;;;18.10;76.71;97810.64;1731876;81;24765;-86
2021/08/29 11:10:54;;;;;;;;;;;;;;;18.04;76.62;97804.69;1736397;81;22056;-86
2021/08/29 11:13:35;;;;;;;;;;;;;;;18.03;76.56;97810.48;1733830;80;25963;-86
2021/08/29 11:16:13;;;;;;;;;;;;;;;18.02;76.49;97804.02;1709034;82;20319;-86
2021/08/29 11:18:53;;;;;;;;;;;;;;;18.02;76.41;97804.85;1751989;80;20293;-86
2021/08/29 11:21:19;;;;;;;;;;;;;;;17.97;76.25;97798.74;1699977;82;24822;-85
2021/08/29 11:23:45;;;;;;;;;;;;;;;18.04;76.14;97800.72;1755767;80;20293;-85
2021/08/29 11:26:30;;;;;;;;;;;;;;;18.04;75.99;97796.75;1757296;80;26069;-85
2021/08/29 11:28:56;;;;;;;;;;;;;;;18.06;75.84;97792.92;1754249;81;24451;-84
2021/08/29 11:31:42;;;;;;;;;;;;;;;18.15;75.72;97789.77;1755481;80;20175;-89
2021/08/29 11:34:08;;;;;;;;;;;;;;;18.15;75.60;97791.09;1757301;80;24995;-85
2021/08/29 11:36:33;;;;;;;;;;;;;;;18.26;75.51;97796.02;1756853;80;20464;-84
2021/08/29 11:39:00;;;;;;;;;;;;;;;18.38;75.44;97799.96;1757885;80;26003;-86
2021/08/29 11:41:29;;;;;;;;;;;;;;;18.46;75.31;97795.11;1756844;80;24637;-85
2021/08/29 11:43:59;;;;;;;;;;;;;;;18.56;75.21;97793.93;1761643;80;20207;-84
2021/08/29 11:46:24;;;;;;;;;;;;;;;18.77;75.17;97791.50;1756255;80;24790;-84
2021/08/29 11:48:52;;;;;;;;;;;;;;;18.95;75.21;97789.91;1757025;80;22000;-84
2021/08/29 11:51:29;;;;;;;;;;;;;;;18.91;75.04;97791.77;1754872;80;27784;-85
2021/08/29 11:53:55;;;;;;;;;;;;;;;18.73;74.71;97791.53;1756847;80;24314;-85
2021/08/29 11:56:22;;;;;;;;;;;;;;;18.57;74.46;97794.77;1758881;81;20233;-86
2021/08/29 11:58:49;;;;;;;;;;;;;;;18.51;74.22;97784.81;1757190;80;24732;-86
2021/08/29 12:01:15;;;;;;;;;;;;;;;18.61;74.16;97788.11;1754279;81;22083;-86
2021/08/29 12:03:43;;;;;;;;;;;;;;;18.69;74.13;97792.89;1758208;80;26063;-86
2021/08/29 12:06:12;;;;;;;;;;;;;;;18.66;74.08;97793.71;1758284;80;24401;-86
2021/08/29 12:09:00;;;;;;;;;;;;;;;18.69;74.12;97788.91;1761854;80;20261;-86
2021/08/29 12:11:18;;;;;;;;;;;;;;;18.62;74.15;97789.27;1755565;79;20398;-86
2021/08/29 12:13:46;;;;;;;;;;;;;;;18.68;74.21;97786.42;1762003;79;22043;-86
2021/08/29 12:16:12;;;;;;;;;;;;;;;18.76;74.27;97787.19;1766355;79;26118;-86
2021/08/29 12:18:39;;;;;;;;;;;;;;;18.79;74.35;97786.86;1764586;80;24418;-86
2021/08/29 12:21:07;;;;;;;;;;;;;;;18.74;74.34;97784.41;1761774;80;20234;-86
2021/08/29 12:23:35;;;;;;;;;;;;;;;18.82;74.39;97783.55;1764639;80;24912;-86
2021/08/29 12:26:03;;;;;;;;;;;;;;;18.90;74.46;97779.01;1766660;79;21962;-86
2021/08/29 12:28:29;;;;;;;;;;;;;;;18.90;74.48;97778.18;1763685;80;25550;-86
2021/08/29 12:31:03;;;;;;;;;;;;;;;18.90;74.49;97775.53;1765724;80;24666;-87
2021/08/29 12:33:30;;;;;;;;;;;;;;;18.89;74.49;97773.88;1754412;80;20262;-87
2021/08/29 12:35:57;;;;;;;;;;;;;;;18.84;74.34;97776.22;1762832;81;24802;-87
2021/08/29 12:38:24;;;;;;;;;;;;;;;18.75;74.12;97770.16;1767904;80;22011;-87
2021/08/29 12:40:55;;;;;;;;;;;;;;;18.70;73.99;97768.03;1765141;81;26176;-87
2021/08/29 12:43:23;;;;;;;;;;;;;;;18.61;73.82;97765.08;1757815;80;25250;-87
2021/08/29 12:45:49;;;;;;;;;;;;;;;18.57;73.66;97769.09;1763813;80;20222;-87
2021/08/29 12:48:15;;;;;;;;;;;;;;;18.56;73.61;97770.58;1754066;80;24787;-87
2021/08/29 12:50:47;;;;;;;;;;;;;;;18.48;73.54;97767.95;1775541;79;20276;-87